<?xml version="1.0" encoding="UTF-8"?>
<gpx xmlns:xsi="http://www.w3.org/2001/XMLSchema-instance" xsi:schemaLocation="http://www.topografix.com/GPX/1/1 http://www.topografix.com/GPX/1/1/gpx.xsd" creator="StravaGPX" version="1.1" xmlns="http://www.topografix.com/GPX/1/1">
 <metadata>
  <time>2025-10-10T16:14:14Z</time>
 </metadata>
 <trk>
  <name>Dachsbau</name>
  <type>cycling</type>
  <trkseg>
   <trkpt lat="47.6940210" lon="9.1672710">
    <ele>480.6</ele>
    <time>2025-10-10T16:14:14Z</time>
   </trkpt>
   <trkpt lat="47.6940210" lon="9.1672710">
    <ele>480.6</ele>
    <time>2025-10-10T16:14:15Z</time>
   </trkpt>
   <trkpt lat="47.6940380" lon="9.1672750">
    <ele>480.4</ele>
    <time>2025-10-10T16:14:16Z</time>
   </trkpt>
   <trkpt lat="47.6940360" lon="9.1672760">
    <ele>480.4</ele>
    <time>2025-10-10T16:14:17Z</time>
   </trkpt>
   <trkpt lat="47.6940320" lon="9.1672590">
    <ele>480.3</ele>
    <time>2025-10-10T16:14:18Z</time>
   </trkpt>
   <trkpt lat="47.6940250" lon="9.1672230">
    <ele>480.1</ele>
    <time>2025-10-10T16:14:19Z</time>
   </trkpt>
   <trkpt lat="47.6940230" lon="9.1672070">
    <ele>479.9</ele>
    <time>2025-10-10T16:14:20Z</time>
   </trkpt>
   <trkpt lat="47.6940100" lon="9.1671880">
    <ele>479.8</ele>
    <time>2025-10-10T16:14:21Z</time>
   </trkpt>
   <trkpt lat="47.6939920" lon="9.1671920">
    <ele>479.6</ele>
    <time>2025-10-10T16:14:22Z</time>
   </trkpt>
   <trkpt lat="47.6939780" lon="9.1672030">
    <ele>479.4</ele>
    <time>2025-10-10T16:14:23Z</time>
   </trkpt>
   <trkpt lat="47.6939680" lon="9.1672120">
    <ele>479.3</ele>
    <time>2025-10-10T16:14:24Z</time>
   </trkpt>
   <trkpt lat="47.6939600" lon="9.1672120">
    <ele>479.2</ele>
    <time>2025-10-10T16:14:25Z</time>
   </trkpt>
   <trkpt lat="47.6939500" lon="9.1672120">
    <ele>479.1</ele>
    <time>2025-10-10T16:14:26Z</time>
   </trkpt>
   <trkpt lat="47.6939610" lon="9.1672110">
    <ele>478.9</ele>
    <time>2025-10-10T16:14:27Z</time>
   </trkpt>
   <trkpt lat="47.6939630" lon="9.1672070">
    <ele>478.9</ele>
    <time>2025-10-10T16:14:28Z</time>
   </trkpt>
   <trkpt lat="47.6939640" lon="9.1672020">
    <ele>478.9</ele>
    <time>2025-10-10T16:14:29Z</time>
   </trkpt>
   <trkpt lat="47.6939650" lon="9.1671970">
    <ele>478.8</ele>
    <time>2025-10-10T16:14:30Z</time>
   </trkpt>
   <trkpt lat="47.6939670" lon="9.1671920">
    <ele>478.8</ele>
    <time>2025-10-10T16:14:31Z</time>
   </trkpt>
   <trkpt lat="47.6939680" lon="9.1671880">
    <ele>478.7</ele>
    <time>2025-10-10T16:14:32Z</time>
   </trkpt>
   <trkpt lat="47.6939700" lon="9.1671830">
    <ele>478.7</ele>
    <time>2025-10-10T16:14:33Z</time>
   </trkpt>
   <trkpt lat="47.6939710" lon="9.1671780">
    <ele>478.6</ele>
    <time>2025-10-10T16:14:34Z</time>
   </trkpt>
   <trkpt lat="47.6939720" lon="9.1671730">
    <ele>478.6</ele>
    <time>2025-10-10T16:14:35Z</time>
   </trkpt>
   <trkpt lat="47.6939740" lon="9.1671690">
    <ele>478.6</ele>
    <time>2025-10-10T16:14:36Z</time>
   </trkpt>
   <trkpt lat="47.6939750" lon="9.1671640">
    <ele>478.5</ele>
    <time>2025-10-10T16:14:37Z</time>
   </trkpt>
   <trkpt lat="47.6939980" lon="9.1671390">
    <ele>478.2</ele>
    <time>2025-10-10T16:14:38Z</time>
   </trkpt>
   <trkpt lat="47.6940070" lon="9.1671320">
    <ele>478.0</ele>
    <time>2025-10-10T16:14:39Z</time>
   </trkpt>
   <trkpt lat="47.6940290" lon="9.1670910">
    <ele>477.5</ele>
    <time>2025-10-10T16:14:40Z</time>
   </trkpt>
   <trkpt lat="47.6940460" lon="9.1670450">
    <ele>477.0</ele>
    <time>2025-10-10T16:14:41Z</time>
   </trkpt>
   <trkpt lat="47.6940700" lon="9.1670020">
    <ele>476.4</ele>
    <time>2025-10-10T16:14:42Z</time>
   </trkpt>
   <trkpt lat="47.6940870" lon="9.1669660">
    <ele>476.0</ele>
    <time>2025-10-10T16:14:43Z</time>
   </trkpt>
   <trkpt lat="47.6940990" lon="9.1669180">
    <ele>475.4</ele>
    <time>2025-10-10T16:14:44Z</time>
   </trkpt>
   <trkpt lat="47.6941050" lon="9.1668550">
    <ele>474.8</ele>
    <time>2025-10-10T16:14:45Z</time>
   </trkpt>
   <trkpt lat="47.6941210" lon="9.1667890">
    <ele>474.0</ele>
    <time>2025-10-10T16:14:46Z</time>
   </trkpt>
   <trkpt lat="47.6941440" lon="9.1667170">
    <ele>473.2</ele>
    <time>2025-10-10T16:14:47Z</time>
   </trkpt>
   <trkpt lat="47.6941540" lon="9.1666560">
    <ele>472.5</ele>
    <time>2025-10-10T16:14:48Z</time>
   </trkpt>
   <trkpt lat="47.6941720" lon="9.1665910">
    <ele>471.9</ele>
    <time>2025-10-10T16:14:49Z</time>
   </trkpt>
   <trkpt lat="47.6941890" lon="9.1665420">
    <ele>471.4</ele>
    <time>2025-10-10T16:14:50Z</time>
   </trkpt>
   <trkpt lat="47.6942110" lon="9.1664730">
    <ele>470.8</ele>
    <time>2025-10-10T16:14:51Z</time>
   </trkpt>
   <trkpt lat="47.6942300" lon="9.1664100">
    <ele>470.4</ele>
    <time>2025-10-10T16:14:52Z</time>
   </trkpt>
   <trkpt lat="47.6942380" lon="9.1663370">
    <ele>470.0</ele>
    <time>2025-10-10T16:14:53Z</time>
   </trkpt>
   <trkpt lat="47.6942540" lon="9.1662700">
    <ele>469.7</ele>
    <time>2025-10-10T16:14:54Z</time>
   </trkpt>
   <trkpt lat="47.6942660" lon="9.1661870">
    <ele>469.4</ele>
    <time>2025-10-10T16:14:55Z</time>
   </trkpt>
   <trkpt lat="47.6942810" lon="9.1661330">
    <ele>469.2</ele>
    <time>2025-10-10T16:14:56Z</time>
   </trkpt>
   <trkpt lat="47.6942990" lon="9.1660770">
    <ele>469.0</ele>
    <time>2025-10-10T16:14:57Z</time>
   </trkpt>
   <trkpt lat="47.6943110" lon="9.1660180">
    <ele>468.9</ele>
    <time>2025-10-10T16:14:58Z</time>
   </trkpt>
   <trkpt lat="47.6943260" lon="9.1659570">
    <ele>468.7</ele>
    <time>2025-10-10T16:14:59Z</time>
   </trkpt>
   <trkpt lat="47.6943380" lon="9.1658990">
    <ele>468.5</ele>
    <time>2025-10-10T16:15:00Z</time>
   </trkpt>
   <trkpt lat="47.6943610" lon="9.1658500">
    <ele>468.3</ele>
    <time>2025-10-10T16:15:01Z</time>
   </trkpt>
   <trkpt lat="47.6943810" lon="9.1658060">
    <ele>468.1</ele>
    <time>2025-10-10T16:15:02Z</time>
   </trkpt>
   <trkpt lat="47.6943880" lon="9.1657630">
    <ele>467.8</ele>
    <time>2025-10-10T16:15:03Z</time>
   </trkpt>
   <trkpt lat="47.6943980" lon="9.1657100">
    <ele>467.5</ele>
    <time>2025-10-10T16:15:04Z</time>
   </trkpt>
   <trkpt lat="47.6944040" lon="9.1656610">
    <ele>467.1</ele>
    <time>2025-10-10T16:15:05Z</time>
   </trkpt>
   <trkpt lat="47.6944110" lon="9.1656080">
    <ele>466.7</ele>
    <time>2025-10-10T16:15:06Z</time>
   </trkpt>
   <trkpt lat="47.6944060" lon="9.1655640">
    <ele>466.3</ele>
    <time>2025-10-10T16:15:07Z</time>
   </trkpt>
   <trkpt lat="47.6943910" lon="9.1655260">
    <ele>465.9</ele>
    <time>2025-10-10T16:15:08Z</time>
   </trkpt>
   <trkpt lat="47.6943680" lon="9.1655000">
    <ele>465.4</ele>
    <time>2025-10-10T16:15:09Z</time>
   </trkpt>
   <trkpt lat="47.6943430" lon="9.1654610">
    <ele>464.8</ele>
    <time>2025-10-10T16:15:10Z</time>
   </trkpt>
   <trkpt lat="47.6943330" lon="9.1654470">
    <ele>464.6</ele>
    <time>2025-10-10T16:15:11Z</time>
   </trkpt>
   <trkpt lat="47.6943140" lon="9.1654120">
    <ele>464.0</ele>
    <time>2025-10-10T16:15:12Z</time>
   </trkpt>
   <trkpt lat="47.6942910" lon="9.1653760">
    <ele>463.5</ele>
    <time>2025-10-10T16:15:13Z</time>
   </trkpt>
   <trkpt lat="47.6942740" lon="9.1653340">
    <ele>462.9</ele>
    <time>2025-10-10T16:15:14Z</time>
   </trkpt>
   <trkpt lat="47.6942900" lon="9.1652640">
    <ele>461.9</ele>
    <time>2025-10-10T16:15:15Z</time>
   </trkpt>
   <trkpt lat="47.6943000" lon="9.1652310">
    <ele>461.5</ele>
    <time>2025-10-10T16:15:16Z</time>
   </trkpt>
   <trkpt lat="47.6943120" lon="9.1651840">
    <ele>460.9</ele>
    <time>2025-10-10T16:15:17Z</time>
   </trkpt>
   <trkpt lat="47.6943180" lon="9.1651320">
    <ele>460.2</ele>
    <time>2025-10-10T16:15:18Z</time>
   </trkpt>
   <trkpt lat="47.6943010" lon="9.1650870">
    <ele>459.6</ele>
    <time>2025-10-10T16:15:19Z</time>
   </trkpt>
   <trkpt lat="47.6942920" lon="9.1650730">
    <ele>459.4</ele>
    <time>2025-10-10T16:15:20Z</time>
   </trkpt>
   <trkpt lat="47.6942610" lon="9.1650750">
    <ele>458.9</ele>
    <time>2025-10-10T16:15:21Z</time>
   </trkpt>
   <trkpt lat="47.6942500" lon="9.1650770">
    <ele>458.8</ele>
    <time>2025-10-10T16:15:22Z</time>
   </trkpt>
   <trkpt lat="47.6942210" lon="9.1650540">
    <ele>458.2</ele>
    <time>2025-10-10T16:15:23Z</time>
   </trkpt>
   <trkpt lat="47.6942130" lon="9.1650440">
    <ele>458.1</ele>
    <time>2025-10-10T16:15:24Z</time>
   </trkpt>
   <trkpt lat="47.6941900" lon="9.1650210">
    <ele>457.6</ele>
    <time>2025-10-10T16:15:25Z</time>
   </trkpt>
   <trkpt lat="47.6941630" lon="9.1649980">
    <ele>457.1</ele>
    <time>2025-10-10T16:15:26Z</time>
   </trkpt>
   <trkpt lat="47.6941320" lon="9.1649680">
    <ele>456.5</ele>
    <time>2025-10-10T16:15:27Z</time>
   </trkpt>
   <trkpt lat="47.6940960" lon="9.1649400">
    <ele>455.8</ele>
    <time>2025-10-10T16:15:28Z</time>
   </trkpt>
   <trkpt lat="47.6940480" lon="9.1649280">
    <ele>454.8</ele>
    <time>2025-10-10T16:15:29Z</time>
   </trkpt>
   <trkpt lat="47.6940020" lon="9.1649040">
    <ele>453.8</ele>
    <time>2025-10-10T16:15:30Z</time>
   </trkpt>
   <trkpt lat="47.6939610" lon="9.1648790">
    <ele>452.9</ele>
    <time>2025-10-10T16:15:31Z</time>
   </trkpt>
   <trkpt lat="47.6939340" lon="9.1648600">
    <ele>452.3</ele>
    <time>2025-10-10T16:15:32Z</time>
   </trkpt>
   <trkpt lat="47.6939170" lon="9.1648210">
    <ele>451.7</ele>
    <time>2025-10-10T16:15:33Z</time>
   </trkpt>
   <trkpt lat="47.6939290" lon="9.1647770">
    <ele>451.0</ele>
    <time>2025-10-10T16:15:34Z</time>
   </trkpt>
   <trkpt lat="47.6939510" lon="9.1647150">
    <ele>450.0</ele>
    <time>2025-10-10T16:15:35Z</time>
   </trkpt>
   <trkpt lat="47.6939700" lon="9.1646470">
    <ele>448.9</ele>
    <time>2025-10-10T16:15:36Z</time>
   </trkpt>
   <trkpt lat="47.6939900" lon="9.1645830">
    <ele>447.9</ele>
    <time>2025-10-10T16:15:37Z</time>
   </trkpt>
   <trkpt lat="47.6940190" lon="9.1645460">
    <ele>447.1</ele>
    <time>2025-10-10T16:15:38Z</time>
   </trkpt>
   <trkpt lat="47.6940460" lon="9.1644910">
    <ele>446.2</ele>
    <time>2025-10-10T16:15:39Z</time>
   </trkpt>
   <trkpt lat="47.6940700" lon="9.1644440">
    <ele>445.5</ele>
    <time>2025-10-10T16:15:40Z</time>
   </trkpt>
   <trkpt lat="47.6940700" lon="9.1643710">
    <ele>444.7</ele>
    <time>2025-10-10T16:15:41Z</time>
   </trkpt>
   <trkpt lat="47.6940720" lon="9.1643120">
    <ele>444.2</ele>
    <time>2025-10-10T16:15:42Z</time>
   </trkpt>
   <trkpt lat="47.6940600" lon="9.1642420">
    <ele>443.5</ele>
    <time>2025-10-10T16:15:43Z</time>
   </trkpt>
   <trkpt lat="47.6940380" lon="9.1641720">
    <ele>442.8</ele>
    <time>2025-10-10T16:15:44Z</time>
   </trkpt>
   <trkpt lat="47.6940220" lon="9.1640800">
    <ele>441.8</ele>
    <time>2025-10-10T16:15:45Z</time>
   </trkpt>
   <trkpt lat="47.6940180" lon="9.1639850">
    <ele>440.6</ele>
    <time>2025-10-10T16:15:46Z</time>
   </trkpt>
   <trkpt lat="47.6940040" lon="9.1638910">
    <ele>439.3</ele>
    <time>2025-10-10T16:15:47Z</time>
   </trkpt>
   <trkpt lat="47.6939840" lon="9.1637970">
    <ele>438.0</ele>
    <time>2025-10-10T16:15:48Z</time>
   </trkpt>
   <trkpt lat="47.6939680" lon="9.1636930">
    <ele>436.6</ele>
    <time>2025-10-10T16:15:49Z</time>
   </trkpt>
   <trkpt lat="47.6939560" lon="9.1636180">
    <ele>435.7</ele>
    <time>2025-10-10T16:15:50Z</time>
   </trkpt>
   <trkpt lat="47.6939260" lon="9.1635130">
    <ele>434.6</ele>
    <time>2025-10-10T16:15:51Z</time>
   </trkpt>
   <trkpt lat="47.6939080" lon="9.1634140">
    <ele>433.9</ele>
    <time>2025-10-10T16:15:52Z</time>
   </trkpt>
   <trkpt lat="47.6938950" lon="9.1633240">
    <ele>433.2</ele>
    <time>2025-10-10T16:15:53Z</time>
   </trkpt>
   <trkpt lat="47.6938910" lon="9.1632680">
    <ele>432.9</ele>
    <time>2025-10-10T16:15:54Z</time>
   </trkpt>
   <trkpt lat="47.6938970" lon="9.1632220">
    <ele>432.6</ele>
    <time>2025-10-10T16:15:55Z</time>
   </trkpt>
   <trkpt lat="47.6939050" lon="9.1631710">
    <ele>432.3</ele>
    <time>2025-10-10T16:15:56Z</time>
   </trkpt>
   <trkpt lat="47.6939070" lon="9.1631570">
    <ele>432.2</ele>
    <time>2025-10-10T16:15:57Z</time>
   </trkpt>
   <trkpt lat="47.6939090" lon="9.1631470">
    <ele>432.2</ele>
    <time>2025-10-10T16:15:58Z</time>
   </trkpt>
   <trkpt lat="47.6938990" lon="9.1631620">
    <ele>432.1</ele>
    <time>2025-10-10T16:15:59Z</time>
   </trkpt>
  </trkseg>
 </trk>
</gpx>
